sensor_id;sensor_type;location;lat;lon;timestamp;temperature;humidity
14006;DHT22;7078;51.542;7.314;2022-07-12T00:01:15;15.40;99.90
14006;DHT22;7078;51.542;7.314;2022-07-12T00:07:04;15.30;99.90
14006;DHT22;7078;51.542;7.314;2022-07-12T00:09:29;15.30;99.90
14006;DHT22;7078;51.542;7.314;2022-07-12T00:11:55;15.20;99.90
14006;DHT22;7078;51.542;7.314;2022-07-12T00:14:21;15.20;99.90
14006;DHT22;7078;51.542;7.314;2022-07-12T00:16:47;15.10;99.90
14006;DHT22;7078;51.542;7.314;2022-07-12T00:19:12;15.10;99.90
14006;DHT22;7078;51.542;7.314;2022-07-12T00:21:38;15.10;99.90
14006;DHT22;7078;51.542;7.314;2022-07-12T00:24:03;15.00;99.90
14006;DHT22;7078;51.542;7.314;2022-07-12T00:26:29;15.00;99.90
14006;DHT22;7078;51.542;7.314;2022-07-12T00:28:54;15.00;99.90
14006;DHT22;7078;51.542;7.314;2022-07-12T00:31:20;14.90;99.90
14006;DHT22;7078;51.542;7.314;2022-07-12T00:33:46;14.90;99.90
14006;DHT22;7078;51.542;7.314;2022-07-12T00:36:12;14.80;99.90
14006;DHT22;7078;51.542;7.314;2022-07-12T00:38:37;14.80;99.90
14006;DHT22;7078;51.542;7.314;2022-07-12T00:41:03;14.80;99.90
14006;DHT22;7078;51.542;7.314;2022-07-12T00:43:28;14.70;99.90
14006;DHT22;7078;51.542;7.314;2022-07-12T00:45:54;14.70;99.90
14006;DHT22;7078;51.542;7.314;2022-07-12T00:48:20;14.70;99.90
14006;DHT22;7078;51.542;7.314;2022-07-12T00:50:46;14.60;99.90
14006;DHT22;7078;51.542;7.314;2022-07-12T00:53:13;14.60;99.90
14006;DHT22;7078;51.542;7.314;2022-07-12T00:55:39;14.60;99.90
14006;DHT22;7078;51.542;7.314;2022-07-12T00:58:04;14.50;99.90
14006;DHT22;7078;51.542;7.314;2022-07-12T01:00:30;14.50;99.90
14006;DHT22;7078;51.542;7.314;2022-07-12T01:02:57;14.50;99.90
14006;DHT22;7078;51.542;7.314;2022-07-12T01:05:23;14.50;99.90
14006;DHT22;7078;51.542;7.314;2022-07-12T01:07:49;14.50;99.90
14006;DHT22;7078;51.542;7.314;2022-07-12T01:10:15;14.40;99.90
14006;DHT22;7078;51.542;7.314;2022-07-12T01:12:41;14.40;99.90
14006;DHT22;7078;51.542;7.314;2022-07-12T01:15:08;14.40;99.90
14006;DHT22;7078;51.542;7.314;2022-07-12T01:17:34;14.30;99.90
14006;DHT22;7078;51.542;7.314;2022-07-12T01:20:00;14.30;99.90
14006;DHT22;7078;51.542;7.314;2022-07-12T01:22:31;14.30;99.90
14006;DHT22;7078;51.542;7.314;2022-07-12T01:24:57;14.30;99.90
14006;DHT22;7078;51.542;7.314;2022-07-12T01:27:23;14.30;99.90
14006;DHT22;7078;51.542;7.314;2022-07-12T01:29:48;14.30;99.90
14006;DHT22;7078;51.542;7.314;2022-07-12T01:32:14;14.30;99.90
14006;DHT22;7078;51.542;7.314;2022-07-12T01:35:02;14.20;99.90
14006;DHT22;7078;51.542;7.314;2022-07-12T01:37:33;14.20;99.90
14006;DHT22;7078;51.542;7.314;2022-07-12T01:39:59;14.20;99.90
14006;DHT22;7078;51.542;7.314;2022-07-12T01:42:27;14.20;99.90
14006;DHT22;7078;51.542;7.314;2022-07-12T01:44:53;14.10;99.90
14006;DHT22;7078;51.542;7.314;2022-07-12T01:47:20;14.20;99.90
14006;DHT22;7078;51.542;7.314;2022-07-12T01:49:46;14.10;99.90
14006;DHT22;7078;51.542;7.314;2022-07-12T01:52:12;14.10;99.90
14006;DHT22;7078;51.542;7.314;2022-07-12T01:54:38;14.00;99.90
14006;DHT22;7078;51.542;7.314;2022-07-12T01:57:04;14.00;99.90
14006;DHT22;7078;51.542;7.314;2022-07-12T01:59:30;14.00;99.90
14006;DHT22;7078;51.542;7.314;2022-07-12T02:01:57;13.90;99.90
14006;DHT22;7078;51.542;7.314;2022-07-12T02:04:22;13.90;99.90
14006;DHT22;7078;51.542;7.314;2022-07-12T02:06:48;13.90;99.90
14006;DHT22;7078;51.542;7.314;2022-07-12T02:09:15;13.80;99.90
14006;DHT22;7078;51.542;7.314;2022-07-12T02:11:42;13.90;99.90
14006;DHT22;7078;51.542;7.314;2022-07-12T02:14:08;13.90;99.90
14006;DHT22;7078;51.542;7.314;2022-07-12T02:16:34;13.90;99.90
14006;DHT22;7078;51.542;7.314;2022-07-12T02:18:59;13.80;99.90
14006;DHT22;7078;51.542;7.314;2022-07-12T02:21:25;13.80;99.90
14006;DHT22;7078;51.542;7.314;2022-07-12T02:23:51;13.80;99.90
14006;DHT22;7078;51.542;7.314;2022-07-12T02:26:16;13.80;99.90
14006;DHT22;7078;51.542;7.314;2022-07-12T02:28:42;13.80;99.90
14006;DHT22;7078;51.542;7.314;2022-07-12T02:31:08;13.80;99.90
14006;DHT22;7078;51.542;7.314;2022-07-12T02:33:34;13.70;99.90
14006;DHT22;7078;51.542;7.314;2022-07-12T02:36:00;13.70;99.90
14006;DHT22;7078;51.542;7.314;2022-07-12T02:38:26;13.70;99.90
14006;DHT22;7078;51.542;7.314;2022-07-12T02:40:51;13.70;99.90
14006;DHT22;7078;51.542;7.314;2022-07-12T02:43:28;13.70;99.90
14006;DHT22;7078;51.542;7.314;2022-07-12T02:46:03;13.60;99.90
14006;DHT22;7078;51.542;7.314;2022-07-12T02:48:29;13.60;99.90
14006;DHT22;7078;51.542;7.314;2022-07-12T02:50:55;13.60;99.90
14006;DHT22;7078;51.542;7.314;2022-07-12T02:53:20;13.60;99.90
14006;DHT22;7078;51.542;7.314;2022-07-12T02:55:46;13.60;99.90
14006;DHT22;7078;51.542;7.314;2022-07-12T02:58:11;13.50;99.90
14006;DHT22;7078;51.542;7.314;2022-07-12T03:00:37;13.50;99.90
14006;DHT22;7078;51.542;7.314;2022-07-12T03:03:03;13.50;99.90
14006;DHT22;7078;51.542;7.314;2022-07-12T03:05:29;13.50;99.90
14006;DHT22;7078;51.542;7.314;2022-07-12T03:07:55;13.50;99.90
14006;DHT22;7078;51.542;7.314;2022-07-12T03:10:20;13.50;99.90
14006;DHT22;7078;51.542;7.314;2022-07-12T03:12:46;13.50;99.90
14006;DHT22;7078;51.542;7.314;2022-07-12T03:15:11;13.50;99.90
14006;DHT22;7078;51.542;7.314;2022-07-12T03:17:37;13.50;99.90
14006;DHT22;7078;51.542;7.314;2022-07-12T03:20:04;13.40;99.90
14006;DHT22;7078;51.542;7.314;2022-07-12T03:22:31;13.40;99.90
14006;DHT22;7078;51.542;7.314;2022-07-12T03:24:57;13.40;99.90
14006;DHT22;7078;51.542;7.314;2022-07-12T03:27:22;13.40;99.90
14006;DHT22;7078;51.542;7.314;2022-07-12T03:29:48;13.30;99.90
14006;DHT22;7078;51.542;7.314;2022-07-12T03:32:13;13.30;99.90
14006;DHT22;7078;51.542;7.314;2022-07-12T03:34:39;13.30;99.90
14006;DHT22;7078;51.542;7.314;2022-07-12T03:37:04;13.40;99.90
14006;DHT22;7078;51.542;7.314;2022-07-12T03:39:30;13.30;99.90
14006;DHT22;7078;51.542;7.314;2022-07-12T03:41:56;13.30;99.90
14006;DHT22;7078;51.542;7.314;2022-07-12T03:44:22;13.30;99.90
14006;DHT22;7078;51.542;7.314;2022-07-12T03:46:48;13.30;99.90
14006;DHT22;7078;51.542;7.314;2022-07-12T03:49:14;13.40;99.90
14006;DHT22;7078;51.542;7.314;2022-07-12T03:51:39;13.40;99.90
14006;DHT22;7078;51.542;7.314;2022-07-12T03:54:05;13.40;99.90
14006;DHT22;7078;51.542;7.314;2022-07-12T03:56:33;13.40;99.90
14006;DHT22;7078;51.542;7.314;2022-07-12T03:59:17;13.40;99.90
14006;DHT22;7078;51.542;7.314;2022-07-12T04:01:43;13.40;99.90
14006;DHT22;7078;51.542;7.314;2022-07-12T04:04:08;13.40;99.90
14006;DHT22;7078;51.542;7.314;2022-07-12T04:06:34;13.40;99.90
14006;DHT22;7078;51.542;7.314;2022-07-12T04:08:59;13.50;99.90
14006;DHT22;7078;51.542;7.314;2022-07-12T04:11:25;13.50;99.90
14006;DHT22;7078;51.542;7.314;2022-07-12T04:13:51;13.60;99.90
14006;DHT22;7078;51.542;7.314;2022-07-12T04:16:16;13.60;99.90
14006;DHT22;7078;51.542;7.314;2022-07-12T04:18:42;13.60;99.90
14006;DHT22;7078;51.542;7.314;2022-07-12T04:21:07;13.70;99.90
14006;DHT22;7078;51.542;7.314;2022-07-12T04:23:33;13.70;99.90
14006;DHT22;7078;51.542;7.314;2022-07-12T04:25:59;13.70;99.90
14006;DHT22;7078;51.542;7.314;2022-07-12T04:28:24;13.70;99.90
14006;DHT22;7078;51.542;7.314;2022-07-12T04:30:50;13.70;99.90
14006;DHT22;7078;51.542;7.314;2022-07-12T04:33:15;13.70;99.90
14006;DHT22;7078;51.542;7.314;2022-07-12T04:35:41;13.90;99.90
14006;DHT22;7078;51.542;7.314;2022-07-12T04:38:07;13.80;99.90
14006;DHT22;7078;51.542;7.314;2022-07-12T04:40:33;13.90;99.90
14006;DHT22;7078;51.542;7.314;2022-07-12T04:42:59;13.90;99.90
14006;DHT22;7078;51.542;7.314;2022-07-12T04:45:24;14.00;99.90
14006;DHT22;7078;51.542;7.314;2022-07-12T04:47:50;14.00;99.90
14006;DHT22;7078;51.542;7.314;2022-07-12T04:50:16;14.20;99.90
14006;DHT22;7078;51.542;7.314;2022-07-12T04:52:41;14.30;99.90
14006;DHT22;7078;51.542;7.314;2022-07-12T04:55:07;14.50;99.90
14006;DHT22;7078;51.542;7.314;2022-07-12T04:57:33;14.50;99.90
14006;DHT22;7078;51.542;7.314;2022-07-12T04:59:59;14.70;99.90
14006;DHT22;7078;51.542;7.314;2022-07-12T05:02:24;14.80;99.90
14006;DHT22;7078;51.542;7.314;2022-07-12T05:04:51;15.00;99.90
14006;DHT22;7078;51.542;7.314;2022-07-12T05:07:16;15.10;99.90
14006;DHT22;7078;51.542;7.314;2022-07-12T05:09:42;15.60;99.90
14006;DHT22;7078;51.542;7.314;2022-07-12T05:12:07;16.30;99.90
14006;DHT22;7078;51.542;7.314;2022-07-12T05:14:33;16.90;99.90
14006;DHT22;7078;51.542;7.314;2022-07-12T05:16:59;17.60;99.90
14006;DHT22;7078;51.542;7.314;2022-07-12T05:19:24;18.10;99.90
14006;DHT22;7078;51.542;7.314;2022-07-12T05:21:50;18.50;99.90
14006;DHT22;7078;51.542;7.314;2022-07-12T05:24:16;18.60;99.90
14006;DHT22;7078;51.542;7.314;2022-07-12T05:26:41;18.90;99.90
14006;DHT22;7078;51.542;7.314;2022-07-12T05:29:07;19.10;99.90
14006;DHT22;7078;51.542;7.314;2022-07-12T05:31:33;19.30;99.90
14006;DHT22;7078;51.542;7.314;2022-07-12T05:33:59;19.30;99.90
14006;DHT22;7078;51.542;7.314;2022-07-12T05:36:25;19.00;99.90
14006;DHT22;7078;51.542;7.314;2022-07-12T05:38:51;18.80;99.90
14006;DHT22;7078;51.542;7.314;2022-07-12T05:41:17;18.60;99.90
14006;DHT22;7078;51.542;7.314;2022-07-12T05:43:42;18.40;99.90
14006;DHT22;7078;51.542;7.314;2022-07-12T05:46:09;18.30;99.90
14006;DHT22;7078;51.542;7.314;2022-07-12T05:48:35;18.30;99.90
14006;DHT22;7078;51.542;7.314;2022-07-12T05:51:01;18.20;99.90
14006;DHT22;7078;51.542;7.314;2022-07-12T05:53:46;18.20;99.90
14006;DHT22;7078;51.542;7.314;2022-07-12T05:56:11;18.20;99.90
14006;DHT22;7078;51.542;7.314;2022-07-12T05:58:37;18.30;99.90
14006;DHT22;7078;51.542;7.314;2022-07-12T06:01:03;18.30;99.90
14006;DHT22;7078;51.542;7.314;2022-07-12T06:03:28;18.40;99.90
14006;DHT22;7078;51.542;7.314;2022-07-12T06:05:54;18.40;99.90
14006;DHT22;7078;51.542;7.314;2022-07-12T06:08:19;18.40;99.90
14006;DHT22;7078;51.542;7.314;2022-07-12T06:10:45;18.50;99.90
14006;DHT22;7078;51.542;7.314;2022-07-12T06:13:10;18.50;99.90
14006;DHT22;7078;51.542;7.314;2022-07-12T06:15:36;18.60;99.90
14006;DHT22;7078;51.542;7.314;2022-07-12T06:18:02;18.80;99.90
14006;DHT22;7078;51.542;7.314;2022-07-12T06:20:28;18.90;99.90
14006;DHT22;7078;51.542;7.314;2022-07-12T06:22:55;19.00;99.90
14006;DHT22;7078;51.542;7.314;2022-07-12T06:25:21;19.10;99.90
14006;DHT22;7078;51.542;7.314;2022-07-12T06:27:46;19.20;99.90
14006;DHT22;7078;51.542;7.314;2022-07-12T06:30:17;19.30;99.90
14006;DHT22;7078;51.542;7.314;2022-07-12T06:32:44;19.40;99.90
14006;DHT22;7078;51.542;7.314;2022-07-12T06:35:10;19.40;99.90
14006;DHT22;7078;51.542;7.314;2022-07-12T06:37:36;19.50;99.90
14006;DHT22;7078;51.542;7.314;2022-07-12T06:40:01;19.60;99.90
14006;DHT22;7078;51.542;7.314;2022-07-12T06:42:27;19.60;99.90
14006;DHT22;7078;51.542;7.314;2022-07-12T06:44:52;19.70;99.90
14006;DHT22;7078;51.542;7.314;2022-07-12T06:47:18;19.90;99.90
14006;DHT22;7078;51.542;7.314;2022-07-12T06:49:43;19.90;99.90
14006;DHT22;7078;51.542;7.314;2022-07-12T06:52:09;20.00;99.90
14006;DHT22;7078;51.542;7.314;2022-07-12T06:54:34;20.00;99.90
14006;DHT22;7078;51.542;7.314;2022-07-12T06:57:00;20.10;99.90
14006;DHT22;7078;51.542;7.314;2022-07-12T06:59:25;20.20;99.90
14006;DHT22;7078;51.542;7.314;2022-07-12T07:01:51;20.30;99.90
14006;DHT22;7078;51.542;7.314;2022-07-12T07:04:17;20.50;99.90
14006;DHT22;7078;51.542;7.314;2022-07-12T07:06:43;20.60;99.90
14006;DHT22;7078;51.542;7.314;2022-07-12T07:09:08;20.60;99.90
14006;DHT22;7078;51.542;7.314;2022-07-12T07:11:34;20.70;99.90
14006;DHT22;7078;51.542;7.314;2022-07-12T07:14:00;20.80;99.90
14006;DHT22;7078;51.542;7.314;2022-07-12T07:16:26;20.90;99.90
14006;DHT22;7078;51.542;7.314;2022-07-12T07:18:52;20.90;99.90
14006;DHT22;7078;51.542;7.314;2022-07-12T07:21:17;20.90;99.90
14006;DHT22;7078;51.542;7.314;2022-07-12T07:23:43;20.90;99.90
14006;DHT22;7078;51.542;7.314;2022-07-12T07:26:09;21.00;99.90
14006;DHT22;7078;51.542;7.314;2022-07-12T07:28:34;21.10;99.90
14006;DHT22;7078;51.542;7.314;2022-07-12T07:31:20;21.20;99.90
14006;DHT22;7078;51.542;7.314;2022-07-12T07:33:45;21.30;99.90
14006;DHT22;7078;51.542;7.314;2022-07-12T07:36:11;21.30;99.90
14006;DHT22;7078;51.542;7.314;2022-07-12T07:38:37;21.60;99.90
14006;DHT22;7078;51.542;7.314;2022-07-12T07:41:02;21.70;99.90
14006;DHT22;7078;51.542;7.314;2022-07-12T07:43:28;21.80;99.90
14006;DHT22;7078;51.542;7.314;2022-07-12T07:45:53;22.00;99.90
14006;DHT22;7078;51.542;7.314;2022-07-12T07:48:20;22.40;99.90
14006;DHT22;7078;51.542;7.314;2022-07-12T07:50:45;22.30;99.90
14006;DHT22;7078;51.542;7.314;2022-07-12T07:53:11;22.40;99.90
14006;DHT22;7078;51.542;7.314;2022-07-12T07:55:36;22.50;99.90
14006;DHT22;7078;51.542;7.314;2022-07-12T07:58:02;22.40;99.90
14006;DHT22;7078;51.542;7.314;2022-07-12T08:00:28;22.60;99.90
14006;DHT22;7078;51.542;7.314;2022-07-12T08:02:55;22.50;99.90
14006;DHT22;7078;51.542;7.314;2022-07-12T08:05:21;22.50;99.90
14006;DHT22;7078;51.542;7.314;2022-07-12T08:07:46;22.50;99.90
14006;DHT22;7078;51.542;7.314;2022-07-12T08:10:12;22.50;99.90
14006;DHT22;7078;51.542;7.314;2022-07-12T08:12:38;22.50;99.90
14006;DHT22;7078;51.542;7.314;2022-07-12T08:15:03;22.50;99.90
14006;DHT22;7078;51.542;7.314;2022-07-12T08:17:29;22.60;99.90
14006;DHT22;7078;51.542;7.314;2022-07-12T08:19:55;22.60;99.90
14006;DHT22;7078;51.542;7.314;2022-07-12T08:22:20;22.60;99.90
14006;DHT22;7078;51.542;7.314;2022-07-12T08:24:46;22.60;99.90
14006;DHT22;7078;51.542;7.314;2022-07-12T08:27:11;22.70;99.90
14006;DHT22;7078;51.542;7.314;2022-07-12T08:29:37;22.90;99.90
14006;DHT22;7078;51.542;7.314;2022-07-12T08:32:03;22.90;99.90
14006;DHT22;7078;51.542;7.314;2022-07-12T08:34:29;22.90;99.90
14006;DHT22;7078;51.542;7.314;2022-07-12T08:36:55;22.90;99.90
14006;DHT22;7078;51.542;7.314;2022-07-12T08:39:20;23.00;99.90
14006;DHT22;7078;51.542;7.314;2022-07-12T08:41:46;23.10;99.90
14006;DHT22;7078;51.542;7.314;2022-07-12T08:44:11;23.20;99.90
14006;DHT22;7078;51.542;7.314;2022-07-12T08:46:37;23.10;99.90
14006;DHT22;7078;51.542;7.314;2022-07-12T08:49:06;23.10;99.90
14006;DHT22;7078;51.542;7.314;2022-07-12T08:51:35;23.20;99.90
14006;DHT22;7078;51.542;7.314;2022-07-12T08:54:08;23.40;99.90
14006;DHT22;7078;51.542;7.314;2022-07-12T08:56:35;23.30;99.90
14006;DHT22;7078;51.542;7.314;2022-07-12T08:59:17;23.40;99.90
14006;DHT22;7078;51.542;7.314;2022-07-12T09:01:53;23.50;99.90
14006;DHT22;7078;51.542;7.314;2022-07-12T09:04:24;23.50;99.90
14006;DHT22;7078;51.542;7.314;2022-07-12T09:06:50;23.60;99.90
14006;DHT22;7078;51.542;7.314;2022-07-12T09:09:30;23.80;99.90
14006;DHT22;7078;51.542;7.314;2022-07-12T09:11:55;23.70;98.10
14006;DHT22;7078;51.542;7.314;2022-07-12T09:14:21;23.80;97.40
14006;DHT22;7078;51.542;7.314;2022-07-12T09:17:00;23.80;97.10
14006;DHT22;7078;51.542;7.314;2022-07-12T09:19:26;23.90;97.00
14006;DHT22;7078;51.542;7.314;2022-07-12T09:21:53;23.80;95.30
14006;DHT22;7078;51.542;7.314;2022-07-12T09:24:20;23.90;95.10
14006;DHT22;7078;51.542;7.314;2022-07-12T09:26:48;24.10;94.80
14006;DHT22;7078;51.542;7.314;2022-07-12T09:29:18;24.50;94.10
14006;DHT22;7078;51.542;7.314;2022-07-12T09:31:47;24.30;92.80
14006;DHT22;7078;51.542;7.314;2022-07-12T09:34:32;24.50;92.80
14006;DHT22;7078;51.542;7.314;2022-07-12T09:37:16;24.60;93.20
14006;DHT22;7078;51.542;7.314;2022-07-12T09:39:42;24.80;91.90
14006;DHT22;7078;51.542;7.314;2022-07-12T09:42:09;25.10;91.20
14006;DHT22;7078;51.542;7.314;2022-07-12T09:44:38;24.80;90.30
14006;DHT22;7078;51.542;7.314;2022-07-12T09:47:08;24.90;90.00
14006;DHT22;7078;51.542;7.314;2022-07-12T09:49:35;24.90;89.40
14006;DHT22;7078;51.542;7.314;2022-07-12T09:52:02;24.90;90.40
14006;DHT22;7078;51.542;7.314;2022-07-12T09:54:29;24.80;90.10
14006;DHT22;7078;51.542;7.314;2022-07-12T09:56:59;24.90;90.30
14006;DHT22;7078;51.542;7.314;2022-07-12T09:59:29;24.90;89.30
14006;DHT22;7078;51.542;7.314;2022-07-12T10:01:56;25.40;84.80
14006;DHT22;7078;51.542;7.314;2022-07-12T10:04:28;25.50;83.90
14006;DHT22;7078;51.542;7.314;2022-07-12T10:06:54;25.70;84.30
14006;DHT22;7078;51.542;7.314;2022-07-12T10:09:19;25.50;85.00
14006;DHT22;7078;51.542;7.314;2022-07-12T10:11:45;25.90;81.80
14006;DHT22;7078;51.542;7.314;2022-07-12T10:14:12;26.10;78.90
14006;DHT22;7078;51.542;7.314;2022-07-12T10:16:38;26.30;77.20
14006;DHT22;7078;51.542;7.314;2022-07-12T10:19:25;26.10;78.60
14006;DHT22;7078;51.542;7.314;2022-07-12T10:21:54;26.30;77.90
14006;DHT22;7078;51.542;7.314;2022-07-12T10:29:48;26.50;72.60
14006;DHT22;7078;51.542;7.314;2022-07-12T10:32:24;26.60;73.90
14006;DHT22;7078;51.542;7.314;2022-07-12T10:35:09;26.80;71.90
14006;DHT22;7078;51.542;7.314;2022-07-12T10:37:36;26.70;73.50
14006;DHT22;7078;51.542;7.314;2022-07-12T10:40:17;26.50;73.60
14006;DHT22;7078;51.542;7.314;2022-07-12T10:45:40;26.80;72.60
14006;DHT22;7078;51.542;7.314;2022-07-12T10:48:07;26.80;73.00
14006;DHT22;7078;51.542;7.314;2022-07-12T10:53:34;27.10;71.50
14006;DHT22;7078;51.542;7.314;2022-07-12T10:56:19;27.20;69.70
14006;DHT22;7078;51.542;7.314;2022-07-12T10:58:49;27.10;69.80
14006;DHT22;7078;51.542;7.314;2022-07-12T11:01:20;27.20;71.20
14006;DHT22;7078;51.542;7.314;2022-07-12T11:06:26;27.10;67.50
14006;DHT22;7078;51.542;7.314;2022-07-12T11:09:08;27.20;67.00
14006;DHT22;7078;51.542;7.314;2022-07-12T11:11:45;27.40;67.00
14006;DHT22;7078;51.542;7.314;2022-07-12T11:14:13;27.50;64.50
14006;DHT22;7078;51.542;7.314;2022-07-12T11:16:46;27.50;62.70
14006;DHT22;7078;51.542;7.314;2022-07-12T11:19:13;27.40;66.50
14006;DHT22;7078;51.542;7.314;2022-07-12T11:21:38;27.70;64.90
14006;DHT22;7078;51.542;7.314;2022-07-12T11:24:16;27.60;64.00
14006;DHT22;7078;51.542;7.314;2022-07-12T11:26:42;27.50;63.80
14006;DHT22;7078;51.542;7.314;2022-07-12T11:29:08;27.60;62.60
14006;DHT22;7078;51.542;7.314;2022-07-12T11:31:34;27.60;61.80
14006;DHT22;7078;51.542;7.314;2022-07-12T11:33:59;27.50;63.40
14006;DHT22;7078;51.542;7.314;2022-07-12T11:36:25;27.60;61.90
14006;DHT22;7078;51.542;7.314;2022-07-12T11:38:52;27.70;62.20
14006;DHT22;7078;51.542;7.314;2022-07-12T11:41:18;27.60;63.00
14006;DHT22;7078;51.542;7.314;2022-07-12T11:43:45;27.60;61.40
14006;DHT22;7078;51.542;7.314;2022-07-12T11:46:12;27.70;62.00
14006;DHT22;7078;51.542;7.314;2022-07-12T11:48:40;27.90;62.60
14006;DHT22;7078;51.542;7.314;2022-07-12T11:51:11;27.70;61.80
14006;DHT22;7078;51.542;7.314;2022-07-12T11:53:39;27.80;62.40
14006;DHT22;7078;51.542;7.314;2022-07-12T11:56:06;27.90;61.00
14006;DHT22;7078;51.542;7.314;2022-07-12T11:58:33;28.00;61.20
14006;DHT22;7078;51.542;7.314;2022-07-12T12:01:00;28.40;60.80
14006;DHT22;7078;51.542;7.314;2022-07-12T12:03:26;28.40;60.90
14006;DHT22;7078;51.542;7.314;2022-07-12T12:05:56;28.70;63.20
14006;DHT22;7078;51.542;7.314;2022-07-12T12:08:22;28.30;62.10
14006;DHT22;7078;51.542;7.314;2022-07-12T12:10:54;28.30;60.30
14006;DHT22;7078;51.542;7.314;2022-07-12T12:13:22;28.90;61.60
14006;DHT22;7078;51.542;7.314;2022-07-12T12:16:01;28.90;60.10
14006;DHT22;7078;51.542;7.314;2022-07-12T12:20:59;29.00;59.40
14006;DHT22;7078;51.542;7.314;2022-07-12T12:23:25;28.80;58.50
14006;DHT22;7078;51.542;7.314;2022-07-12T12:25:51;29.00;58.50
14006;DHT22;7078;51.542;7.314;2022-07-12T12:28:17;28.80;57.30
14006;DHT22;7078;51.542;7.314;2022-07-12T12:30:52;28.90;56.60
14006;DHT22;7078;51.542;7.314;2022-07-12T12:33:37;29.10;56.10
14006;DHT22;7078;51.542;7.314;2022-07-12T12:36:26;29.30;55.40
14006;DHT22;7078;51.542;7.314;2022-07-12T12:38:54;29.10;56.60
14006;DHT22;7078;51.542;7.314;2022-07-12T12:41:20;29.20;56.70
14006;DHT22;7078;51.542;7.314;2022-07-12T12:44:04;29.30;58.70
14006;DHT22;7078;51.542;7.314;2022-07-12T12:49:50;29.60;55.80
14006;DHT22;7078;51.542;7.314;2022-07-12T12:52:17;29.90;55.80
14006;DHT22;7078;51.542;7.314;2022-07-12T12:54:43;29.80;57.80
14006;DHT22;7078;51.542;7.314;2022-07-12T12:57:10;29.90;55.00
14006;DHT22;7078;51.542;7.314;2022-07-12T12:59:36;29.80;55.20
14006;DHT22;7078;51.542;7.314;2022-07-12T13:02:04;29.80;55.50
14006;DHT22;7078;51.542;7.314;2022-07-12T13:04:34;29.80;55.90
14006;DHT22;7078;51.542;7.314;2022-07-12T13:07:00;29.60;57.30
14006;DHT22;7078;51.542;7.314;2022-07-12T13:09:26;29.60;56.30
14006;DHT22;7078;51.542;7.314;2022-07-12T13:11:52;29.80;55.50
14006;DHT22;7078;51.542;7.314;2022-07-12T13:14:18;29.90;54.60
14006;DHT22;7078;51.542;7.314;2022-07-12T13:16:44;30.00;55.30
14006;DHT22;7078;51.542;7.314;2022-07-12T13:19:09;30.20;52.80
14006;DHT22;7078;51.542;7.314;2022-07-12T13:21:35;30.30;52.50
14006;DHT22;7078;51.542;7.314;2022-07-12T13:24:00;30.20;50.70
14006;DHT22;7078;51.542;7.314;2022-07-12T13:26:26;30.00;51.50
14006;DHT22;7078;51.542;7.314;2022-07-12T13:28:55;30.30;52.90
14006;DHT22;7078;51.542;7.314;2022-07-12T13:31:21;30.10;52.30
14006;DHT22;7078;51.542;7.314;2022-07-12T13:37:08;30.40;52.30
14006;DHT22;7078;51.542;7.314;2022-07-12T13:39:33;30.60;51.80
14006;DHT22;7078;51.542;7.314;2022-07-12T13:42:17;30.90;50.50
14006;DHT22;7078;51.542;7.314;2022-07-12T13:44:43;30.80;53.10
14006;DHT22;7078;51.542;7.314;2022-07-12T13:47:10;31.00;53.90
14006;DHT22;7078;51.542;7.314;2022-07-12T13:49:35;31.00;52.90
14006;DHT22;7078;51.542;7.314;2022-07-12T13:52:02;31.00;52.20
14006;DHT22;7078;51.542;7.314;2022-07-12T13:54:28;31.00;50.70
14006;DHT22;7078;51.542;7.314;2022-07-12T13:56:54;30.90;49.40
14006;DHT22;7078;51.542;7.314;2022-07-12T13:59:19;30.90;50.50
14006;DHT22;7078;51.542;7.314;2022-07-12T14:01:45;31.10;51.60
14006;DHT22;7078;51.542;7.314;2022-07-12T14:04:11;31.30;51.50
14006;DHT22;7078;51.542;7.314;2022-07-12T14:06:37;31.50;51.60
14006;DHT22;7078;51.542;7.314;2022-07-12T14:09:03;31.50;49.80
14006;DHT22;7078;51.542;7.314;2022-07-12T14:11:28;31.40;50.00
14006;DHT22;7078;51.542;7.314;2022-07-12T14:13:54;31.30;49.60
14006;DHT22;7078;51.542;7.314;2022-07-12T14:16:19;31.20;48.30
14006;DHT22;7078;51.542;7.314;2022-07-12T14:18:46;31.20;47.30
14006;DHT22;7078;51.542;7.314;2022-07-12T14:21:12;31.60;48.70
14006;DHT22;7078;51.542;7.314;2022-07-12T14:23:37;31.80;46.70
14006;DHT22;7078;51.542;7.314;2022-07-12T14:26:03;31.60;47.30
14006;DHT22;7078;51.542;7.314;2022-07-12T14:28:29;31.60;49.30
14006;DHT22;7078;51.542;7.314;2022-07-12T14:30:54;31.80;48.90
14006;DHT22;7078;51.542;7.314;2022-07-12T14:33:20;31.60;48.00
14006;DHT22;7078;51.542;7.314;2022-07-12T14:35:45;31.80;47.50
14006;DHT22;7078;51.542;7.314;2022-07-12T14:38:12;31.90;48.20
14006;DHT22;7078;51.542;7.314;2022-07-12T14:40:39;31.80;48.40
14006;DHT22;7078;51.542;7.314;2022-07-12T14:43:04;31.90;49.90
14006;DHT22;7078;51.542;7.314;2022-07-12T14:45:30;32.00;49.60
14006;DHT22;7078;51.542;7.314;2022-07-12T14:47:55;32.00;49.40
14006;DHT22;7078;51.542;7.314;2022-07-12T14:50:21;32.20;49.90
14006;DHT22;7078;51.542;7.314;2022-07-12T14:52:46;31.80;49.90
14006;DHT22;7078;51.542;7.314;2022-07-12T14:55:12;31.80;49.70
14006;DHT22;7078;51.542;7.314;2022-07-12T14:57:38;31.80;50.80
14006;DHT22;7078;51.542;7.314;2022-07-12T15:00:05;31.70;50.30
14006;DHT22;7078;51.542;7.314;2022-07-12T15:02:33;31.60;51.40
14006;DHT22;7078;51.542;7.314;2022-07-12T15:04:59;31.50;49.30
14006;DHT22;7078;51.542;7.314;2022-07-12T15:07:29;31.50;49.40
14006;DHT22;7078;51.542;7.314;2022-07-12T15:09:55;31.30;51.20
14006;DHT22;7078;51.542;7.314;2022-07-12T15:12:21;31.30;51.50
14006;DHT22;7078;51.542;7.314;2022-07-12T15:14:46;31.10;50.40
14006;DHT22;7078;51.542;7.314;2022-07-12T15:17:12;31.00;51.30
14006;DHT22;7078;51.542;7.314;2022-07-12T15:19:38;30.80;50.20
14006;DHT22;7078;51.542;7.314;2022-07-12T15:22:04;30.70;53.20
14006;DHT22;7078;51.542;7.314;2022-07-12T15:24:29;30.50;51.00
14006;DHT22;7078;51.542;7.314;2022-07-12T15:26:55;30.60;51.10
14006;DHT22;7078;51.542;7.314;2022-07-12T15:29:22;30.30;51.70
14006;DHT22;7078;51.542;7.314;2022-07-12T15:31:47;30.40;50.60
14006;DHT22;7078;51.542;7.314;2022-07-12T15:34:13;30.20;52.20
14006;DHT22;7078;51.542;7.314;2022-07-12T15:36:39;30.30;51.70
14006;DHT22;7078;51.542;7.314;2022-07-12T15:39:04;30.30;53.10
14006;DHT22;7078;51.542;7.314;2022-07-12T15:41:30;30.00;52.90
14006;DHT22;7078;51.542;7.314;2022-07-12T15:43:56;30.00;51.50
14006;DHT22;7078;51.542;7.314;2022-07-12T15:46:22;30.00;51.80
14006;DHT22;7078;51.542;7.314;2022-07-12T15:48:47;29.90;51.10
14006;DHT22;7078;51.542;7.314;2022-07-12T15:51:13;30.10;52.00
14006;DHT22;7078;51.542;7.314;2022-07-12T15:53:38;30.20;52.20
14006;DHT22;7078;51.542;7.314;2022-07-12T15:56:06;30.40;50.30
14006;DHT22;7078;51.542;7.314;2022-07-12T15:58:37;30.60;49.70
14006;DHT22;7078;51.542;7.314;2022-07-12T16:01:03;30.60;50.10
14006;DHT22;7078;51.542;7.314;2022-07-12T16:03:29;30.60;50.30
14006;DHT22;7078;51.542;7.314;2022-07-12T16:05:57;30.60;52.20
14006;DHT22;7078;51.542;7.314;2022-07-12T16:08:23;30.30;51.90
14006;DHT22;7078;51.542;7.314;2022-07-12T16:10:49;30.50;52.40